createdAt,value
2022-12-29T00:00:25.221Z,73.93
2022-12-29T00:03:13.269Z,74.00
2022-12-29T00:05:41.802Z,74.25
2022-12-29T00:08:09.736Z,73.83
2022-12-29T00:10:37.531Z,73.91
2022-12-29T00:13:23.965Z,73.51
2022-12-29T00:15:51.715Z,73.71
2022-12-29T00:18:19.744Z,73.96
2022-12-29T00:21:05.951Z,73.88
2022-12-29T00:23:55.881Z,73.66
2022-12-29T00:26:42.236Z,73.45
2022-12-29T00:29:29.288Z,73.45
2022-12-29T00:32:15.637Z,73.44
2022-12-29T00:35:02.943Z,73.52
2022-12-29T00:37:51.051Z,73.74
2022-12-29T00:40:37.888Z,73.68
2022-12-29T00:43:24.191Z,72.98
2022-12-29T00:45:52.220Z,73.18
2022-12-29T00:48:39.935Z,73.04
2022-12-29T00:51:08.897Z,73.07
2022-12-29T00:53:36.623Z,73.37
2022-12-29T00:56:04.827Z,73.56
2022-12-29T00:58:32.773Z,73.25
2022-12-29T01:01:06.813Z,73.42
2022-12-29T01:03:36.995Z,73.40
2022-12-29T01:06:07.706Z,73.75
2022-12-29T01:08:35.951Z,73.31
2022-12-29T01:11:12.529Z,73.38
2022-12-29T01:13:42.258Z,73.75
2022-12-29T01:16:10.218Z,73.44
2022-12-29T01:18:37.878Z,73.38
2022-12-29T01:21:07.428Z,73.53
2022-12-29T01:23:35.140Z,73.60
2022-12-29T01:26:17.491Z,73.72
2022-12-29T01:28:46.536Z,73.84
2022-12-29T01:31:16.199Z,74.21
2022-12-29T01:33:44.794Z,73.71
2022-12-29T01:36:17.696Z,73.55
2022-12-29T01:38:45.527Z,73.42
2022-12-29T01:41:15.666Z,73.61
2022-12-29T01:43:49.267Z,73.94
2022-12-29T01:46:17.246Z,73.95
2022-12-29T01:48:49.942Z,74.12
2022-12-29T01:51:18.074Z,74.33
2022-12-29T01:53:46.957Z,74.47
2022-12-29T01:56:18.697Z,74.22
2022-12-29T01:58:50.130Z,74.24
2022-12-29T02:01:20.597Z,73.86
2022-12-29T02:03:49.985Z,73.76
2022-12-29T02:06:21.247Z,74.11
2022-12-29T02:08:53.167Z,74.00
2022-12-29T02:11:27.394Z,74.42
2022-12-29T02:13:55.337Z,74.45
2022-12-29T02:16:54.489Z,74.49
2022-12-29T02:19:42.629Z,74.62
2022-12-29T02:23:12.235Z,74.65
2022-12-29T02:26:00.871Z,74.55
2022-12-29T02:28:53.019Z,75.12
2022-12-29T02:31:39.600Z,75.62
2022-12-29T02:34:19.263Z,75.96
2022-12-29T02:37:19.305Z,76.40
2022-12-29T02:40:12.031Z,77.21
2022-12-29T02:43:12.253Z,77.95
2022-12-29T02:45:51.323Z,78.89
2022-12-29T02:48:28.729Z,79.41
2022-12-29T02:51:08.459Z,79.81
2022-12-29T02:53:56.166Z,80.22
2022-12-29T02:56:24.278Z,80.68
2022-12-29T02:58:53.041Z,81.59
2022-12-29T03:01:33.051Z,82.38
2022-12-29T03:04:16.956Z,82.86
2022-12-29T03:06:52.898Z,83.30
2022-12-29T03:09:31.245Z,84.19
2022-12-29T03:12:48.760Z,85.13
2022-12-29T03:15:48.626Z,86.71
2022-12-29T03:18:44.801Z,87.24
2022-12-29T03:21:50.975Z,88.30
2022-12-29T03:24:25.301Z,89.31
2022-12-29T03:26:57.834Z,90.40
2022-12-29T03:29:33.308Z,90.77
2022-12-29T03:32:05.472Z,91.65
2022-12-29T03:34:34.476Z,91.98
2022-12-29T03:37:15.941Z,92.13
2022-12-29T03:39:45.266Z,92.18
2022-12-29T03:42:20.224Z,91.93
2022-12-29T03:44:49.449Z,92.41
2022-12-29T03:47:17.814Z,93.30
2022-12-29T03:49:47.926Z,93.58
2022-12-29T03:52:16.064Z,94.44
2022-12-29T03:54:46.725Z,94.12
2022-12-29T03:57:14.859Z,94.24
2022-12-29T03:59:59.364Z,95.46
2022-12-29T04:02:27.814Z,95.61
2022-12-29T04:04:56.106Z,96.02
2022-12-29T04:07:24.804Z,96.49
2022-12-29T04:09:55.334Z,96.69
2022-12-29T04:12:25.773Z,97.88
2022-12-29T04:14:53.783Z,98.24
2022-12-29T04:17:21.636Z,99.06
2022-12-29T04:19:52.254Z,99.20
2022-12-29T04:22:20.129Z,99.53
2022-12-29T04:24:48.066Z,99.87
2022-12-29T04:27:15.854Z,99.24
2022-12-29T04:30:10.535Z,99.48
2022-12-29T04:32:51.120Z,99.56
2022-12-29T04:35:19.178Z,99.63
2022-12-29T04:37:46.830Z,99.59
2022-12-29T04:40:14.926Z,99.60
2022-12-29T04:42:42.709Z,99.04
2022-12-29T04:45:11.287Z,98.76
2022-12-29T04:47:52.304Z,98.92
2022-12-29T04:50:49.421Z,99.44
2022-12-29T04:53:22.500Z,99.21
2022-12-29T04:55:52.322Z,98.75
2022-12-29T04:58:23.156Z,99.08
2022-12-29T05:00:52.860Z,99.52
2022-12-29T05:03:24.140Z,99.61
2022-12-29T05:05:56.155Z,99.76
2022-12-29T05:08:27.981Z,99.98
2022-12-29T05:10:59.019Z,99.73
2022-12-29T05:13:27.861Z,99.22
2022-12-29T05:15:56.111Z,99.08
2022-12-29T05:18:25.241Z,98.89
2022-12-29T05:20:53.392Z,99.07
2022-12-29T05:23:22.688Z,98.55
2022-12-29T05:25:57.049Z,97.88
2022-12-29T05:28:45.341Z,97.25
2022-12-29T05:31:17.045Z,96.93
2022-12-29T05:33:45.478Z,97.51
2022-12-29T05:36:14.680Z,98.07
2022-12-29T05:38:47.690Z,97.49
2022-12-29T05:41:16.029Z,98.10
2022-12-29T05:44:02.684Z,98.34
2022-12-29T05:46:43.468Z,98.01
2022-12-29T05:49:26.080Z,97.98
2022-12-29T05:52:07.138Z,97.81
2022-12-29T05:54:35.858Z,97.03
2022-12-29T05:57:08.670Z,96.68
2022-12-29T05:59:36.434Z,96.35
2022-12-29T06:02:05.953Z,96.69
2022-12-29T06:04:34.131Z,97.14
2022-12-29T06:07:02.171Z,97.12
2022-12-29T06:09:42.489Z,97.32
2022-12-29T06:12:11.646Z,96.83
2022-12-29T06:14:41.465Z,96.63
2022-12-29T06:17:13.283Z,96.99
2022-12-29T06:19:41.212Z,96.82
2022-12-29T06:22:09.265Z,96.96
2022-12-29T06:24:37.581Z,97.33
2022-12-29T06:27:05.818Z,97.51
2022-12-29T06:29:33.660Z,97.68
2022-12-29T06:32:01.673Z,97.24
2022-12-29T06:34:32.053Z,97.06
2022-12-29T06:37:00.176Z,96.22
2022-12-29T06:39:27.846Z,95.61
2022-12-29T06:42:05.061Z,94.96
2022-12-29T06:44:47.217Z,94.35
2022-12-29T06:47:15.242Z,94.94
2022-12-29T06:49:42.958Z,94.63
2022-12-29T06:52:13.261Z,95.21
2022-12-29T06:54:41.903Z,94.66
2022-12-29T06:57:09.829Z,94.86
2022-12-29T06:59:37.547Z,94.48
2022-12-29T07:02:05.616Z,94.46
2022-12-29T07:04:33.647Z,93.75
2022-12-29T07:07:01.678Z,93.75
2022-12-29T07:09:29.307Z,93.75
2022-12-29T07:11:57.378Z,93.20
2022-12-29T07:14:25.119Z,93.13
2022-12-29T07:16:53.131Z,92.69
2022-12-29T07:19:21.300Z,92.23
2022-12-29T07:21:49.313Z,92.31
2022-12-29T07:24:17.042Z,92.27
2022-12-29T07:26:44.960Z,91.61
2022-12-29T07:29:12.667Z,92.00
2022-12-29T07:31:40.627Z,91.55
2022-12-29T07:34:10.339Z,91.34
2022-12-29T07:36:38.380Z,90.41
2022-12-29T07:39:06.096Z,90.76
2022-12-29T07:41:34.160Z,90.42
2022-12-29T07:44:03.805Z,89.85
2022-12-29T07:46:55.292Z,89.59
2022-12-29T07:49:24.741Z,89.19
2022-12-29T07:51:52.743Z,88.16
2022-12-29T07:54:20.675Z,88.32
2022-12-29T07:56:48.750Z,88.79
2022-12-29T07:59:16.431Z,88.77
2022-12-29T08:01:44.509Z,87.45
2022-12-29T08:04:12.372Z,86.48
2022-12-29T08:06:40.566Z,85.34
2022-12-29T08:09:14.977Z,85.19
2022-12-29T08:11:46.282Z,84.99
2022-12-29T08:14:14.007Z,84.37
2022-12-29T08:16:42.087Z,84.11
2022-12-29T08:19:12.869Z,84.04
2022-12-29T08:21:41.320Z,82.90
2022-12-29T08:24:10.469Z,83.31
2022-12-29T08:26:38.619Z,83.67
2022-12-29T08:29:06.310Z,82.30
2022-12-29T08:31:34.275Z,80.85
2022-12-29T08:34:04.931Z,80.74
2022-12-29T08:36:32.992Z,80.05
2022-12-29T08:39:00.720Z,78.87
2022-12-29T08:41:28.619Z,78.15
2022-12-29T08:43:56.414Z,77.60
2022-12-29T08:46:24.413Z,76.56
2022-12-29T08:48:52.214Z,75.80
2022-12-29T08:51:24.447Z,74.73
2022-12-29T08:53:53.178Z,73.67
2022-12-29T08:56:21.696Z,72.33
2022-12-29T08:58:53.989Z,71.24
2022-12-29T09:01:23.912Z,70.21
2022-12-29T09:06:40.752Z,70.25
2022-12-29T09:09:08.807Z,69.28
2022-12-29T09:11:36.998Z,68.55
2022-12-29T09:14:05.088Z,68.18
2022-12-29T09:16:33.956Z,68.11
2022-12-29T09:19:02.140Z,67.53
2022-12-29T09:21:30.196Z,66.95
2022-12-29T09:23:58.017Z,66.69
2022-12-29T09:26:25.991Z,66.04
2022-12-29T09:28:54.681Z,65.91
2022-12-29T09:31:23.229Z,65.25
2022-12-29T09:33:51.030Z,64.65
2022-12-29T09:36:19.077Z,64.44
2022-12-29T09:38:46.755Z,64.29
2022-12-29T09:41:50.373Z,63.79
2022-12-29T09:45:00.325Z,63.15
2022-12-29T09:47:29.179Z,63.03
2022-12-29T09:50:23.869Z,62.67
2022-12-29T09:53:00.107Z,62.69
2022-12-29T09:55:40.162Z,63.15
2022-12-29T09:58:32.847Z,63.06
2022-12-29T10:01:18.262Z,63.00
2022-12-29T10:03:52.011Z,63.21
2022-12-29T10:06:32.989Z,63.06
2022-12-29T10:09:19.219Z,63.15
2022-12-29T10:11:52.513Z,62.92
2022-12-29T10:14:51.269Z,62.76
2022-12-29T10:17:40.862Z,62.57
2022-12-29T10:20:22.951Z,62.78
2022-12-29T10:23:24.178Z,62.55
2022-12-29T10:25:55.957Z,62.60
2022-12-29T10:28:43.377Z,62.78
2022-12-29T10:31:20.945Z,62.85
2022-12-29T10:34:02.134Z,62.78
2022-12-29T10:36:39.689Z,62.70
2022-12-29T10:39:31.285Z,62.74
2022-12-29T10:42:20.996Z,62.69
2022-12-29T10:44:49.217Z,62.56
2022-12-29T10:47:22.993Z,62.38
2022-12-29T10:49:51.256Z,62.70
2022-12-29T10:52:23.272Z,62.58
2022-12-29T10:55:00.066Z,62.26
2022-12-29T10:57:34.982Z,62.04
2022-12-29T11:00:10.036Z,61.85
2022-12-29T11:02:55.962Z,61.80
2022-12-29T11:05:28.753Z,61.47
2022-12-29T11:08:02.785Z,61.39
2022-12-29T11:10:39.919Z,60.85
2022-12-29T11:13:17.468Z,60.99
2022-12-29T11:15:47.379Z,60.46
2022-12-29T11:18:39.113Z,60.95
2022-12-29T11:21:26.279Z,61.10
2022-12-29T11:24:30.606Z,60.39
2022-12-29T11:27:25.799Z,60.24
2022-12-29T11:29:55.185Z,60.47
2022-12-29T11:32:28.831Z,60.37
2022-12-29T11:35:01.937Z,60.11
2022-12-29T11:37:54.873Z,60.37
2022-12-29T11:40:23.159Z,59.79
2022-12-29T11:43:03.639Z,59.72
2022-12-29T11:45:38.299Z,60.01
2022-12-29T11:48:20.137Z,59.84
2022-12-29T11:51:02.592Z,60.21
2022-12-29T11:53:48.143Z,60.42
2022-12-29T11:56:19.513Z,60.33
2022-12-29T11:58:50.463Z,60.20
2022-12-29T12:01:37.385Z,59.92
2022-12-29T12:04:12.220Z,59.68
2022-12-29T12:06:48.650Z,59.75
2022-12-29T12:09:26.345Z,59.66
2022-12-29T12:11:56.399Z,60.25
2022-12-29T12:14:37.852Z,60.46
2022-12-29T12:17:56.832Z,60.35
2022-12-29T12:20:32.475Z,60.30
2022-12-29T12:23:38.140Z,60.54
2022-12-29T12:26:12.584Z,60.99
2022-12-29T12:28:52.541Z,60.60
2022-12-29T12:31:47.286Z,60.67
2022-12-29T12:34:30.149Z,60.70
2022-12-29T12:37:15.068Z,60.87
2022-12-29T12:40:09.326Z,60.37
2022-12-29T12:43:14.721Z,60.74
2022-12-29T12:46:05.729Z,60.48
2022-12-29T12:48:53.675Z,60.53
2022-12-29T12:51:26.800Z,60.59
2022-12-29T12:53:59.943Z,60.74
2022-12-29T12:56:48.580Z,61.12
2022-12-29T12:59:22.018Z,60.84
2022-12-29T13:02:08.005Z,60.73
2022-12-29T13:04:56.689Z,61.11
2022-12-29T13:07:49.744Z,61.21
2022-12-29T13:10:21.633Z,61.28
2022-12-29T13:13:13.891Z,61.29
2022-12-29T13:15:51.197Z,61.50
2022-12-29T13:18:21.879Z,61.78
2022-12-29T13:21:03.732Z,61.61
2022-12-29T13:23:50.225Z,62.04
2022-12-29T13:26:33.546Z,61.75
2022-12-29T13:29:06.467Z,62.05
2022-12-29T13:32:15.174Z,62.04
2022-12-29T13:35:29.099Z,61.76
2022-12-29T13:38:04.629Z,62.07
2022-12-29T13:40:40.141Z,62.61
2022-12-29T13:43:08.326Z,62.32
2022-12-29T13:45:37.413Z,62.78
2022-12-29T13:48:27.417Z,62.43
2022-12-29T13:51:00.411Z,62.53
2022-12-29T13:54:12.191Z,62.53
2022-12-29T13:57:08.288Z,62.64
2022-12-29T13:59:45.264Z,62.47
2022-12-29T14:02:27.203Z,62.18
2022-12-29T14:05:03.060Z,62.62
2022-12-29T14:07:38.667Z,62.61
2022-12-29T14:10:07.519Z,62.44
2022-12-29T14:12:45.449Z,62.51
2022-12-29T14:15:13.180Z,62.09
2022-12-29T14:18:06.775Z,62.18
2022-12-29T14:20:35.193Z,62.30
2022-12-29T14:23:12.356Z,62.59
2022-12-29T14:26:00.844Z,62.42
2022-12-29T14:28:31.503Z,62.02
2022-12-29T14:31:05.483Z,62.24
2022-12-29T14:33:35.024Z,61.84
2022-12-29T14:36:34.513Z,62.10
2022-12-29T14:39:04.163Z,61.94
2022-12-29T14:41:39.534Z,61.34
2022-12-29T14:44:21.741Z,61.35
2022-12-29T14:46:56.313Z,61.51
2022-12-29T14:49:34.265Z,61.97
2022-12-29T14:52:29.808Z,61.72
2022-12-29T14:55:20.646Z,61.90
2022-12-29T14:57:58.299Z,61.86
2022-12-29T15:00:35.071Z,61.63
2022-12-29T15:03:44.795Z,61.82
2022-12-29T15:06:19.906Z,62.04
2022-12-29T15:09:21.982Z,62.16
2022-12-29T15:11:58.715Z,62.06
2022-12-29T15:14:36.605Z,62.12
2022-12-29T15:17:23.364Z,62.06
2022-12-29T15:19:51.841Z,61.70
2022-12-29T15:22:20.229Z,61.83
2022-12-29T15:24:53.615Z,62.23
2022-12-29T15:27:24.355Z,62.23
2022-12-29T15:30:02.857Z,62.04
2022-12-29T15:32:43.188Z,62.48
2022-12-29T15:35:36.522Z,62.58
2022-12-29T15:38:34.575Z,63.07
2022-12-29T15:41:15.910Z,63.18
2022-12-29T15:43:58.717Z,63.65
2022-12-29T15:46:27.055Z,63.97
2022-12-29T15:48:55.067Z,64.38
2022-12-29T15:51:30.615Z,64.26
2022-12-29T15:53:59.422Z,64.31
2022-12-29T15:56:31.070Z,64.55
2022-12-29T15:59:00.162Z,64.64
2022-12-29T16:01:34.246Z,64.88
2022-12-29T16:04:07.579Z,65.30
2022-12-29T16:06:44.895Z,65.39
2022-12-29T16:09:42.624Z,65.75
2022-12-29T16:12:20.085Z,66.30
2022-12-29T16:14:59.568Z,66.54
2022-12-29T16:17:32.135Z,67.32
2022-12-29T16:20:18.214Z,67.11
2022-12-29T16:22:52.210Z,67.59
2022-12-29T16:25:23.428Z,67.76
2022-12-29T16:27:53.119Z,67.99
2022-12-29T16:30:33.910Z,68.71
2022-12-29T16:33:05.140Z,68.83
2022-12-29T16:35:44.999Z,69.21
2022-12-29T16:38:22.486Z,69.55
2022-12-29T16:40:57.191Z,69.87
2022-12-29T16:43:34.219Z,69.78
2022-12-29T16:46:02.528Z,70.23
2022-12-29T16:48:53.005Z,70.43
2022-12-29T16:51:33.058Z,70.80
2022-12-29T16:54:01.821Z,70.72
2022-12-29T16:56:34.152Z,70.50
2022-12-29T16:59:24.054Z,70.42
2022-12-29T17:01:52.265Z,70.63
2022-12-29T17:04:20.031Z,70.46
2022-12-29T17:06:48.096Z,70.09
2022-12-29T17:09:18.619Z,69.95
2022-12-29T17:12:01.252Z,69.72
2022-12-29T17:14:37.114Z,69.78
2022-12-29T17:17:12.223Z,70.19
2022-12-29T17:19:42.909Z,70.49
2022-12-29T17:22:28.562Z,70.51
2022-12-29T17:24:58.436Z,70.79
2022-12-29T17:27:51.108Z,70.64
2022-12-29T17:30:25.149Z,70.19
2022-12-29T17:33:04.189Z,70.47
2022-12-29T17:35:32.028Z,70.28
2022-12-29T17:37:59.941Z,69.86
2022-12-29T17:40:30.863Z,70.00
2022-12-29T17:43:00.395Z,69.47
2022-12-29T17:45:32.575Z,69.55
2022-12-29T17:48:01.865Z,69.09
2022-12-29T17:50:31.713Z,69.12
2022-12-29T17:53:05.188Z,68.87
2022-12-29T17:55:37.986Z,68.76
2022-12-29T17:58:20.076Z,68.77
2022-12-29T18:00:49.795Z,68.64
2022-12-29T18:03:23.248Z,68.77
2022-12-29T18:05:51.406Z,68.68
2022-12-29T18:08:19.405Z,68.49
2022-12-29T18:10:47.609Z,68.68
2022-12-29T18:13:40.467Z,67.90
2022-12-29T18:16:12.747Z,68.25
2022-12-29T18:18:40.783Z,67.97
2022-12-29T18:21:19.819Z,68.36
2022-12-29T18:23:48.162Z,68.49
2022-12-29T18:26:27.308Z,68.26
2022-12-29T18:28:57.390Z,68.06
2022-12-29T18:31:31.139Z,68.26
2022-12-29T18:34:01.337Z,68.15
2022-12-29T18:36:29.988Z,68.11
2022-12-29T18:38:58.033Z,68.24
2022-12-29T18:41:29.885Z,67.89
2022-12-29T18:43:59.744Z,67.98
2022-12-29T18:46:27.790Z,68.20
2022-12-29T18:48:55.917Z,68.24
2022-12-29T18:51:25.464Z,68.36
2022-12-29T18:53:54.376Z,68.44
2022-12-29T18:56:23.403Z,68.49
2022-12-29T18:58:53.509Z,69.25
2022-12-29T19:01:23.859Z,69.61
2022-12-29T19:03:52.500Z,69.96
2022-12-29T19:06:21.362Z,70.12
2022-12-29T19:08:49.747Z,70.49
2022-12-29T19:11:17.989Z,70.52
2022-12-29T19:13:45.987Z,70.27
2022-12-29T19:16:19.902Z,70.25
2022-12-29T19:19:00.884Z,70.32
2022-12-29T19:21:36.578Z,70.47
2022-12-29T19:24:04.992Z,69.84
2022-12-29T19:26:36.452Z,69.83
2022-12-29T19:29:06.807Z,70.15
2022-12-29T19:31:35.331Z,70.19
2022-12-29T19:34:03.697Z,70.10
2022-12-29T19:36:31.844Z,70.11
2022-12-29T19:38:59.794Z,69.78
2022-12-29T19:41:27.630Z,70.01
2022-12-29T19:43:55.979Z,70.20
2022-12-29T19:46:24.614Z,70.39
2022-12-29T19:48:54.979Z,70.62
2022-12-29T19:51:22.737Z,70.39
2022-12-29T19:53:50.941Z,70.71
2022-12-29T19:56:18.906Z,70.73
2022-12-29T19:58:47.730Z,70.65
2022-12-29T20:01:17.603Z,70.87
2022-12-29T20:03:45.986Z,70.62
2022-12-29T20:06:14.656Z,70.37
2022-12-29T20:08:42.907Z,70.09
2022-12-29T20:11:14.549Z,70.05
2022-12-29T20:13:43.821Z,69.85
2022-12-29T20:16:17.582Z,69.84
2022-12-29T20:18:45.773Z,69.66
2022-12-29T20:21:17.011Z,69.71
2022-12-29T20:23:45.802Z,69.54
2022-12-29T20:26:23.295Z,69.42
2022-12-29T20:28:52.734Z,69.36
2022-12-29T20:31:32.439Z,69.49
2022-12-29T20:34:01.136Z,69.57
2022-12-29T20:36:32.178Z,69.29
2022-12-29T20:39:03.461Z,69.48
2022-12-29T20:41:31.342Z,69.39
2022-12-29T20:44:00.014Z,69.41
2022-12-29T20:46:33.958Z,69.48
2022-12-29T20:49:05.186Z,69.55
2022-12-29T20:52:04.448Z,69.66
2022-12-29T20:54:21.428Z,70.07
2022-12-29T20:56:49.374Z,69.98
2022-12-29T20:59:27.425Z,70.36
2022-12-29T21:01:56.387Z,70.45
2022-12-29T21:04:25.297Z,70.30
2022-12-29T21:06:53.478Z,70.92
2022-12-29T21:09:21.720Z,71.17
2022-12-29T21:11:49.785Z,71.35
2022-12-29T21:14:17.897Z,71.53
2022-12-29T21:16:47.064Z,71.77
2022-12-29T21:19:16.009Z,71.62
2022-12-29T21:21:43.661Z,71.62
2022-12-29T21:24:11.585Z,71.81
2022-12-29T21:26:39.328Z,71.73
2022-12-29T21:29:07.380Z,71.93
2022-12-29T21:31:36.721Z,71.73
2022-12-29T21:34:06.124Z,71.56
2022-12-29T21:36:34.258Z,71.63
2022-12-29T21:39:03.589Z,71.40
2022-12-29T21:41:31.933Z,71.46
2022-12-29T21:44:19.920Z,71.44
2022-12-29T21:46:50.543Z,71.00
2022-12-29T21:49:18.444Z,71.05
2022-12-29T21:51:52.480Z,71.24
2022-12-29T21:54:42.823Z,71.00
2022-12-29T21:57:15.419Z,70.58
2022-12-29T22:00:04.597Z,70.12
2022-12-29T22:02:55.412Z,70.17
2022-12-29T22:05:42.201Z,70.17
2022-12-29T22:08:28.289Z,69.99
2022-12-29T22:11:14.706Z,69.64
2022-12-29T22:13:42.418Z,69.43
2022-12-29T22:16:12.290Z,69.40
2022-12-29T22:18:40.161Z,69.38
2022-12-29T22:21:10.191Z,69.30
2022-12-29T22:23:38.252Z,69.23
2022-12-29T22:26:12.399Z,69.46
2022-12-29T22:28:42.058Z,69.11
2022-12-29T22:31:30.165Z,69.23
2022-12-29T22:34:03.019Z,69.34
2022-12-29T22:36:32.680Z,69.34
2022-12-29T22:39:00.393Z,69.66
2022-12-29T22:41:28.382Z,69.47
2022-12-29T22:43:56.018Z,69.47
2022-12-29T22:46:24.202Z,69.93
2022-12-29T22:48:52.084Z,70.26
2022-12-29T22:51:20.033Z,70.54
2022-12-29T22:53:50.139Z,70.27
2022-12-29T22:56:18.870Z,70.24
2022-12-29T22:58:48.192Z,70.34
2022-12-29T23:01:18.170Z,70.25
2022-12-29T23:03:46.140Z,70.29
2022-12-29T23:06:16.396Z,70.41
2022-12-29T23:08:44.509Z,70.93
2022-12-29T23:11:13.666Z,71.21
2022-12-29T23:13:42.238Z,71.70
2022-12-29T23:16:10.221Z,71.94
2022-12-29T23:18:38.070Z,72.32
2022-12-29T23:21:06.753Z,72.83
2022-12-29T23:23:53.656Z,72.76
2022-12-29T23:26:27.966Z,72.97
2022-12-29T23:28:59.860Z,73.05
2022-12-29T23:31:29.533Z,73.09
2022-12-29T23:33:58.626Z,72.99
2022-12-29T23:36:27.100Z,72.54
2022-12-29T23:38:54.923Z,72.52
2022-12-29T23:41:23.246Z,72.34
2022-12-29T23:43:51.167Z,71.89
2022-12-29T23:46:22.386Z,71.69
2022-12-29T23:48:50.857Z,71.78
2022-12-29T23:51:19.270Z,71.54
2022-12-29T23:53:47.505Z,72.03
2022-12-29T23:56:18.757Z,71.90
2022-12-29T23:58:46.550Z,72.24
